sensor_id;sensor_type;location;lat;lon;timestamp;pressure;altitude;pressure_sealevel;temperature;humidity
47366;BME280;33105;47.964;7.982;2022-10-16T00:00:03;96606.56;;;13.51;92.09
47366;BME280;33105;47.964;7.982;2022-10-16T00:03:06;96599.69;;;13.54;92.36
47366;BME280;33105;47.964;7.982;2022-10-16T00:06:10;96603.44;;;13.63;92.75
47366;BME280;33105;47.964;7.982;2022-10-16T00:09:14;96608.66;;;13.65;92.54
47366;BME280;33105;47.964;7.982;2022-10-16T00:12:16;96606.56;;;13.51;92.63
47366;BME280;33105;47.964;7.982;2022-10-16T00:15:19;96600.44;;;13.65;92.06
47366;BME280;33105;47.964;7.982;2022-10-16T00:18:20;96599.25;;;13.76;92.67
47366;BME280;33105;47.964;7.982;2022-10-16T00:21:27;96609.44;;;13.75;92.36
47366;BME280;33105;47.964;7.982;2022-10-16T00:24:29;96613.03;;;13.71;92.03
47366;BME280;33105;47.964;7.982;2022-10-16T00:27:56;96616.69;;;13.56;91.82
47366;BME280;33105;47.964;7.982;2022-10-16T00:31:05;96616.25;;;13.83;92.05
47366;BME280;33105;47.964;7.982;2022-10-16T00:34:09;96610.81;;;13.73;91.31
47366;BME280;33105;47.964;7.982;2022-10-16T00:37:23;96614.91;;;13.75;91.38
47366;BME280;33105;47.964;7.982;2022-10-16T00:40:31;96622.00;;;13.81;92.21
47366;BME280;33105;47.964;7.982;2022-10-16T00:46:47;96614.53;;;13.87;90.89
47366;BME280;33105;47.964;7.982;2022-10-16T00:49:51;96615.13;;;13.84;91.29
47366;BME280;33105;47.964;7.982;2022-10-16T00:52:55;96620.69;;;13.74;91.46
47366;BME280;33105;47.964;7.982;2022-10-16T00:55:57;96624.97;;;13.51;91.58
47366;BME280;33105;47.964;7.982;2022-10-16T00:59:06;96621.13;;;13.86;90.68
47366;BME280;33105;47.964;7.982;2022-10-16T01:02:14;96630.44;;;13.90;90.91
47366;BME280;33105;47.964;7.982;2022-10-16T01:05:19;96628.25;;;13.92;91.29
47366;BME280;33105;47.964;7.982;2022-10-16T01:08:31;96632.13;;;13.86;90.87
47366;BME280;33105;47.964;7.982;2022-10-16T01:11:56;96638.66;;;13.95;90.99
47366;BME280;33105;47.964;7.982;2022-10-16T01:15:36;96634.13;;;13.75;90.29
47366;BME280;33105;47.964;7.982;2022-10-16T01:18:43;96648.72;;;13.66;90.74
47366;BME280;33105;47.964;7.982;2022-10-16T01:21:56;96644.13;;;14.00;90.53
47366;BME280;33105;47.964;7.982;2022-10-16T01:29:00;96639.44;;;14.01;90.44
47366;BME280;33105;47.964;7.982;2022-10-16T01:32:10;96633.41;;;13.99;90.73
47366;BME280;33105;47.964;7.982;2022-10-16T01:35:32;96644.91;;;13.61;92.07
47366;BME280;33105;47.964;7.982;2022-10-16T01:38:39;96648.13;;;13.79;91.74
47366;BME280;33105;47.964;7.982;2022-10-16T01:41:48;96649.38;;;13.52;90.54
47366;BME280;33105;47.964;7.982;2022-10-16T01:44:53;96654.72;;;13.78;91.86
47366;BME280;33105;47.964;7.982;2022-10-16T01:47:58;96654.16;;;13.76;91.95
47366;BME280;33105;47.964;7.982;2022-10-16T01:51:11;96630.59;;;13.70;91.63
47366;BME280;33105;47.964;7.982;2022-10-16T01:54:14;96638.00;;;13.69;91.65
47366;BME280;33105;47.964;7.982;2022-10-16T01:57:48;96639.63;;;13.75;91.20
47366;BME280;33105;47.964;7.982;2022-10-16T02:00:52;96624.50;;;13.78;90.67
47366;BME280;33105;47.964;7.982;2022-10-16T02:04:03;96617.09;;;13.78;91.08
47366;BME280;33105;47.964;7.982;2022-10-16T02:07:08;96612.34;;;13.50;90.17
47366;BME280;33105;47.964;7.982;2022-10-16T02:10:10;96618.44;;;13.81;90.92
47366;BME280;33105;47.964;7.982;2022-10-16T02:13:17;96632.22;;;13.76;91.05
47366;BME280;33105;47.964;7.982;2022-10-16T02:16:22;96632.66;;;13.49;90.69
47366;BME280;33105;47.964;7.982;2022-10-16T02:19:33;96630.06;;;13.68;89.35
47366;BME280;33105;47.964;7.982;2022-10-16T02:22:47;96642.13;;;13.72;89.50
47366;BME280;33105;47.964;7.982;2022-10-16T02:26:07;96635.53;;;13.68;89.73
47366;BME280;33105;47.964;7.982;2022-10-16T02:29:17;96638.16;;;13.88;90.15
47366;BME280;33105;47.964;7.982;2022-10-16T02:32:30;96636.69;;;13.61;89.04
47366;BME280;33105;47.964;7.982;2022-10-16T02:35:33;96644.84;;;13.77;90.04
47366;BME280;33105;47.964;7.982;2022-10-16T02:38:35;96643.81;;;13.62;90.47
47366;BME280;33105;47.964;7.982;2022-10-16T02:41:46;96643.81;;;13.62;89.90
47366;BME280;33105;47.964;7.982;2022-10-16T02:44:50;96649.00;;;13.69;90.52
47366;BME280;33105;47.964;7.982;2022-10-16T02:47:52;96652.59;;;13.65;90.83
47366;BME280;33105;47.964;7.982;2022-10-16T02:50:53;96654.78;;;13.62;90.87
47366;BME280;33105;47.964;7.982;2022-10-16T02:53:55;96652.63;;;13.59;90.76
47366;BME280;33105;47.964;7.982;2022-10-16T02:57:06;96643.31;;;13.55;90.64
47366;BME280;33105;47.964;7.982;2022-10-16T03:00:24;96646.41;;;13.39;90.49
47366;BME280;33105;47.964;7.982;2022-10-16T03:03:29;96655.34;;;13.65;89.65
47366;BME280;33105;47.964;7.982;2022-10-16T03:06:33;96657.22;;;13.69;90.03
47366;BME280;33105;47.964;7.982;2022-10-16T03:09:43;96661.88;;;13.74;90.26
47366;BME280;33105;47.964;7.982;2022-10-16T03:12:52;96664.34;;;13.75;90.60
47366;BME280;33105;47.964;7.982;2022-10-16T03:16:12;96659.50;;;13.57;88.58
47366;BME280;33105;47.964;7.982;2022-10-16T03:19:16;96651.97;;;13.78;89.18
47366;BME280;33105;47.964;7.982;2022-10-16T03:22:23;96654.44;;;13.79;89.22
47366;BME280;33105;47.964;7.982;2022-10-16T03:25:24;96656.00;;;13.41;89.49
47366;BME280;33105;47.964;7.982;2022-10-16T03:28:25;96658.53;;;13.82;89.13
47366;BME280;33105;47.964;7.982;2022-10-16T03:31:30;96659.16;;;13.69;89.21
47366;BME280;33105;47.964;7.982;2022-10-16T03:34:39;96651.09;;;13.38;88.82
47366;BME280;33105;47.964;7.982;2022-10-16T03:37:44;96651.53;;;13.60;87.03
47366;BME280;33105;47.964;7.982;2022-10-16T03:40:50;96657.50;;;13.68;87.10
47366;BME280;33105;47.964;7.982;2022-10-16T03:43:54;96648.41;;;13.77;86.98
47366;BME280;33105;47.964;7.982;2022-10-16T03:47:02;96641.44;;;13.90;87.92
47366;BME280;33105;47.964;7.982;2022-10-16T03:53:40;96648.69;;;13.76;86.79
47366;BME280;33105;47.964;7.982;2022-10-16T03:56:41;96658.34;;;13.68;86.66
47366;BME280;33105;47.964;7.982;2022-10-16T03:59:43;96643.16;;;14.15;86.41
47366;BME280;33105;47.964;7.982;2022-10-16T04:02:44;96652.47;;;13.85;86.26
47366;BME280;33105;47.964;7.982;2022-10-16T04:05:46;96647.47;;;13.92;87.53
47366;BME280;33105;47.964;7.982;2022-10-16T04:08:52;96654.16;;;13.76;88.42
47366;BME280;33105;47.964;7.982;2022-10-16T04:12:03;96655.63;;;13.63;89.52
47366;BME280;33105;47.964;7.982;2022-10-16T04:15:04;96649.09;;;13.93;89.25
47366;BME280;33105;47.964;7.982;2022-10-16T04:18:06;96653.75;;;13.53;89.21
47366;BME280;33105;47.964;7.982;2022-10-16T04:21:08;96664.56;;;13.84;88.85
47366;BME280;33105;47.964;7.982;2022-10-16T04:24:10;96668.03;;;13.55;88.21
47366;BME280;33105;47.964;7.982;2022-10-16T04:27:12;96663.53;;;13.70;88.17
47366;BME280;33105;47.964;7.982;2022-10-16T04:30:14;96667.31;;;13.84;87.96
47366;BME280;33105;47.964;7.982;2022-10-16T04:33:15;96674.59;;;13.99;86.69
47366;BME280;33105;47.964;7.982;2022-10-16T04:36:17;96672.81;;;13.79;87.37
47366;BME280;33105;47.964;7.982;2022-10-16T04:39:24;96669.31;;;13.68;88.26
47366;BME280;33105;47.964;7.982;2022-10-16T04:42:25;96672.47;;;13.90;87.19
47366;BME280;33105;47.964;7.982;2022-10-16T04:45:27;96674.44;;;13.85;87.88
47366;BME280;33105;47.964;7.982;2022-10-16T04:48:31;96672.84;;;13.74;88.74
47366;BME280;33105;47.964;7.982;2022-10-16T04:51:32;96664.63;;;13.74;88.33
47366;BME280;33105;47.964;7.982;2022-10-16T04:54:36;96666.44;;;13.88;88.36
47366;BME280;33105;47.964;7.982;2022-10-16T04:57:44;96679.94;;;13.85;87.38
47366;BME280;33105;47.964;7.982;2022-10-16T05:00:56;96674.94;;;13.92;87.95
47366;BME280;33105;47.964;7.982;2022-10-16T05:03:57;96672.34;;;13.67;87.78
47366;BME280;33105;47.964;7.982;2022-10-16T05:07:10;96662.41;;;13.76;88.95
47366;BME280;33105;47.964;7.982;2022-10-16T05:10:11;96661.06;;;13.68;89.22
47366;BME280;33105;47.964;7.982;2022-10-16T05:13:18;96670.06;;;13.84;88.06
47366;BME280;33105;47.964;7.982;2022-10-16T05:16:25;96677.47;;;13.83;88.82
47366;BME280;33105;47.964;7.982;2022-10-16T05:19:30;96676.84;;;13.91;88.10
47366;BME280;33105;47.964;7.982;2022-10-16T05:22:31;96682.03;;;13.98;87.78
47366;BME280;33105;47.964;7.982;2022-10-16T05:25:52;96696.91;;;13.92;87.43
47366;BME280;33105;47.964;7.982;2022-10-16T05:29:05;96693.94;;;13.83;87.14
47366;BME280;33105;47.964;7.982;2022-10-16T05:32:08;96699.19;;;13.80;87.64
47366;BME280;33105;47.964;7.982;2022-10-16T05:35:12;96701.38;;;13.78;89.31
47366;BME280;33105;47.964;7.982;2022-10-16T05:38:13;96700.50;;;13.87;89.45
47366;BME280;33105;47.964;7.982;2022-10-16T05:41:20;96711.25;;;13.84;89.44
47366;BME280;33105;47.964;7.982;2022-10-16T05:44:27;96712.88;;;13.85;89.46
47366;BME280;33105;47.964;7.982;2022-10-16T05:47:29;96705.22;;;13.82;88.09
47366;BME280;33105;47.964;7.982;2022-10-16T05:50:32;96703.56;;;13.81;88.33
47366;BME280;33105;47.964;7.982;2022-10-16T05:53:35;96698.63;;;13.83;87.50
47366;BME280;33105;47.964;7.982;2022-10-16T05:56:40;96701.91;;;13.85;88.23
47366;BME280;33105;47.964;7.982;2022-10-16T05:59:41;96699.63;;;13.97;87.82
47366;BME280;33105;47.964;7.982;2022-10-16T06:02:44;96702.78;;;13.75;88.72
47366;BME280;33105;47.964;7.982;2022-10-16T06:05:49;96705.69;;;13.89;88.46
47366;BME280;33105;47.964;7.982;2022-10-16T06:09:00;96711.75;;;13.86;88.13
47366;BME280;33105;47.964;7.982;2022-10-16T06:12:16;96720.03;;;13.81;88.79
47366;BME280;33105;47.964;7.982;2022-10-16T06:15:18;96713.34;;;13.97;88.87
47366;BME280;33105;47.964;7.982;2022-10-16T06:18:23;96711.53;;;13.82;88.40
47366;BME280;33105;47.964;7.982;2022-10-16T06:21:27;96721.06;;;13.90;88.56
47366;BME280;33105;47.964;7.982;2022-10-16T06:24:28;96719.94;;;13.96;88.69
47366;BME280;33105;47.964;7.982;2022-10-16T06:27:30;96723.63;;;13.81;88.98
47366;BME280;33105;47.964;7.982;2022-10-16T06:30:32;96726.44;;;13.61;89.18
47366;BME280;33105;47.964;7.982;2022-10-16T06:33:35;96744.44;;;13.87;88.62
47366;BME280;33105;47.964;7.982;2022-10-16T06:36:37;96745.19;;;13.98;89.16
47366;BME280;33105;47.964;7.982;2022-10-16T06:39:39;96754.53;;;13.97;89.15
47366;BME280;33105;47.964;7.982;2022-10-16T06:42:41;96756.91;;;14.14;88.04
47366;BME280;33105;47.964;7.982;2022-10-16T06:45:42;96767.63;;;14.15;89.11
47366;BME280;33105;47.964;7.982;2022-10-16T06:48:44;96762.75;;;14.02;88.82
47366;BME280;33105;47.964;7.982;2022-10-16T06:51:46;96775.72;;;13.86;88.44
47366;BME280;33105;47.964;7.982;2022-10-16T06:54:47;96766.47;;;14.21;87.61
47366;BME280;33105;47.964;7.982;2022-10-16T06:57:49;96762.38;;;14.19;88.25
47366;BME280;33105;47.964;7.982;2022-10-16T07:00:55;96769.19;;;14.26;87.62
47366;BME280;33105;47.964;7.982;2022-10-16T07:04:00;96772.78;;;14.22;87.11
47366;BME280;33105;47.964;7.982;2022-10-16T07:07:10;96779.00;;;14.38;86.82
47366;BME280;33105;47.964;7.982;2022-10-16T07:10:12;96788.69;;;14.30;86.58
47366;BME280;33105;47.964;7.982;2022-10-16T07:13:13;96801.59;;;14.29;86.81
47366;BME280;33105;47.964;7.982;2022-10-16T07:16:17;96809.53;;;14.41;86.73
47366;BME280;33105;47.964;7.982;2022-10-16T07:19:19;96807.31;;;14.43;87.75
47366;BME280;33105;47.964;7.982;2022-10-16T07:22:22;96809.25;;;14.43;87.80
47366;BME280;33105;47.964;7.982;2022-10-16T07:25:24;96814.97;;;14.51;86.10
47366;BME280;33105;47.964;7.982;2022-10-16T07:28:32;96825.09;;;14.56;86.74
47366;BME280;33105;47.964;7.982;2022-10-16T07:31:34;96826.81;;;14.37;85.72
47366;BME280;33105;47.964;7.982;2022-10-16T07:34:38;96834.50;;;14.50;86.16
47366;BME280;33105;47.964;7.982;2022-10-16T07:37:39;96824.00;;;14.57;85.09
47366;BME280;33105;47.964;7.982;2022-10-16T07:40:58;96831.81;;;14.79;86.04
47366;BME280;33105;47.964;7.982;2022-10-16T07:44:00;96842.47;;;14.85;85.69
47366;BME280;33105;47.964;7.982;2022-10-16T07:47:02;96841.03;;;14.93;85.34
47366;BME280;33105;47.964;7.982;2022-10-16T07:50:04;96846.66;;;14.78;85.21
47366;BME280;33105;47.964;7.982;2022-10-16T07:53:05;96842.84;;;15.08;85.22
47366;BME280;33105;47.964;7.982;2022-10-16T07:56:07;96852.53;;;15.34;84.92
47366;BME280;33105;47.964;7.982;2022-10-16T07:59:08;96855.78;;;15.36;85.22
47366;BME280;33105;47.964;7.982;2022-10-16T08:02:10;96862.84;;;15.18;85.08
47366;BME280;33105;47.964;7.982;2022-10-16T08:05:11;96876.69;;;15.37;84.56
47366;BME280;33105;47.964;7.982;2022-10-16T08:08:17;96865.69;;;15.66;85.50
47366;BME280;33105;47.964;7.982;2022-10-16T08:11:18;96865.84;;;15.51;84.15
47366;BME280;33105;47.964;7.982;2022-10-16T08:14:20;96861.00;;;15.67;84.24
47366;BME280;33105;47.964;7.982;2022-10-16T08:17:21;96863.66;;;15.77;83.55
47366;BME280;33105;47.964;7.982;2022-10-16T08:20:22;96867.41;;;15.86;82.67
47366;BME280;33105;47.964;7.982;2022-10-16T08:23:24;96868.22;;;15.86;81.39
47366;BME280;33105;47.964;7.982;2022-10-16T08:26:27;96870.47;;;16.08;81.76
47366;BME280;33105;47.964;7.982;2022-10-16T08:29:28;96875.66;;;15.86;83.02
47366;BME280;33105;47.964;7.982;2022-10-16T08:32:29;96879.44;;;15.95;83.76
47366;BME280;33105;47.964;7.982;2022-10-16T08:35:31;96883.78;;;16.01;82.53
47366;BME280;33105;47.964;7.982;2022-10-16T08:38:33;96882.59;;;16.07;81.47
47366;BME280;33105;47.964;7.982;2022-10-16T08:45:01;96879.31;;;16.48;80.11
47366;BME280;33105;47.964;7.982;2022-10-16T08:51:31;96866.28;;;16.91;79.33
47366;BME280;33105;47.964;7.982;2022-10-16T08:54:37;96867.88;;;16.78;77.09
47366;BME280;33105;47.964;7.982;2022-10-16T08:57:42;96872.13;;;16.71;80.68
47366;BME280;33105;47.964;7.982;2022-10-16T09:00:47;96868.75;;;16.92;78.18
47366;BME280;33105;47.964;7.982;2022-10-16T09:04:17;96865.03;;;16.83;79.50
47366;BME280;33105;47.964;7.982;2022-10-16T09:07:53;96870.81;;;16.63;82.24
47366;BME280;33105;47.964;7.982;2022-10-16T09:12:08;96870.97;;;16.53;81.25
47366;BME280;33105;47.964;7.982;2022-10-16T09:21:31;96891.56;;;17.17;81.14
47366;BME280;33105;47.964;7.982;2022-10-16T09:24:36;96882.41;;;17.35;81.25
47366;BME280;33105;47.964;7.982;2022-10-16T09:27:38;96885.09;;;17.40;80.51
47366;BME280;33105;47.964;7.982;2022-10-16T09:30:39;96887.78;;;17.59;79.75
47366;BME280;33105;47.964;7.982;2022-10-16T09:33:41;96899.88;;;17.63;81.18
47366;BME280;33105;47.964;7.982;2022-10-16T09:36:44;96904.94;;;17.42;77.92
47366;BME280;33105;47.964;7.982;2022-10-16T09:39:52;96904.88;;;17.80;78.97
47366;BME280;33105;47.964;7.982;2022-10-16T09:43:21;96902.84;;;18.13;79.00
47366;BME280;33105;47.964;7.982;2022-10-16T09:46:29;96901.13;;;18.30;77.40
47366;BME280;33105;47.964;7.982;2022-10-16T09:49:32;96889.31;;;18.25;78.03
47366;BME280;33105;47.964;7.982;2022-10-16T09:52:33;96887.25;;;18.44;77.50
47366;BME280;33105;47.964;7.982;2022-10-16T09:55:34;96886.84;;;18.64;75.98
47366;BME280;33105;47.964;7.982;2022-10-16T09:58:36;96890.31;;;18.70;77.60
47366;BME280;33105;47.964;7.982;2022-10-16T10:01:39;96889.22;;;18.93;73.42
47366;BME280;33105;47.964;7.982;2022-10-16T10:04:48;96896.75;;;19.15;72.79
47366;BME280;33105;47.964;7.982;2022-10-16T10:07:56;96901.38;;;19.06;75.84
47366;BME280;33105;47.964;7.982;2022-10-16T10:10:58;96900.53;;;19.42;75.06
47366;BME280;33105;47.964;7.982;2022-10-16T10:14:44;96907.03;;;19.59;71.70
47366;BME280;33105;47.964;7.982;2022-10-16T10:17:50;96896.66;;;19.96;71.21
47366;BME280;33105;47.964;7.982;2022-10-16T10:20:59;96903.78;;;19.88;66.52
47366;BME280;33105;47.964;7.982;2022-10-16T10:24:01;96902.06;;;20.41;71.57
47366;BME280;33105;47.964;7.982;2022-10-16T10:27:16;96886.28;;;20.50;68.68
47366;BME280;33105;47.964;7.982;2022-10-16T10:37:04;96899.59;;;19.99;62.08
47366;BME280;33105;47.964;7.982;2022-10-16T10:43:37;96900.50;;;20.17;67.51
47366;BME280;33105;47.964;7.982;2022-10-16T10:46:46;96894.50;;;20.24;66.91
47366;BME280;33105;47.964;7.982;2022-10-16T10:50:06;96895.50;;;19.97;64.70
47366;BME280;33105;47.964;7.982;2022-10-16T10:53:24;96888.84;;;20.07;68.44
47366;BME280;33105;47.964;7.982;2022-10-16T11:09:58;96871.75;;;20.13;63.35
47366;BME280;33105;47.964;7.982;2022-10-16T11:13:49;96876.72;;;20.33;66.21
47366;BME280;33105;47.964;7.982;2022-10-16T11:23:45;96870.53;;;20.36;64.16
47366;BME280;33105;47.964;7.982;2022-10-16T11:26:50;96861.19;;;20.72;64.45
47366;BME280;33105;47.964;7.982;2022-10-16T11:30:02;96864.75;;;20.64;63.98
47366;BME280;33105;47.964;7.982;2022-10-16T11:36:45;96858.38;;;20.63;60.43
47366;BME280;33105;47.964;7.982;2022-10-16T11:39:50;96859.53;;;20.88;60.43
47366;BME280;33105;47.964;7.982;2022-10-16T11:43:29;96860.84;;;20.82;59.45
47366;BME280;33105;47.964;7.982;2022-10-16T11:46:36;96850.22;;;20.84;59.00
47366;BME280;33105;47.964;7.982;2022-10-16T11:49:40;96854.00;;;20.88;62.10
47366;BME280;33105;47.964;7.982;2022-10-16T11:52:58;96859.88;;;20.78;62.47
47366;BME280;33105;47.964;7.982;2022-10-16T11:56:03;96864.09;;;20.67;61.81
47366;BME280;33105;47.964;7.982;2022-10-16T11:59:11;96862.50;;;20.92;60.52
47366;BME280;33105;47.964;7.982;2022-10-16T12:02:32;96863.47;;;21.04;56.35
47366;BME280;33105;47.964;7.982;2022-10-16T12:09:04;96864.56;;;20.52;57.83
47366;BME280;33105;47.964;7.982;2022-10-16T12:12:37;96860.03;;;20.73;59.06
47366;BME280;33105;47.964;7.982;2022-10-16T12:15:39;96862.16;;;20.93;60.69
47366;BME280;33105;47.964;7.982;2022-10-16T12:18:44;96854.16;;;20.83;60.36
47366;BME280;33105;47.964;7.982;2022-10-16T12:21:46;96850.06;;;20.89;55.14
47366;BME280;33105;47.964;7.982;2022-10-16T12:24:51;96849.44;;;20.92;56.20
47366;BME280;33105;47.964;7.982;2022-10-16T12:28:00;96851.88;;;21.02;59.08
47366;BME280;33105;47.964;7.982;2022-10-16T12:31:06;96850.41;;;20.96;59.35
47366;BME280;33105;47.964;7.982;2022-10-16T12:37:31;96841.91;;;21.19;55.60
47366;BME280;33105;47.964;7.982;2022-10-16T12:40:36;96847.16;;;21.20;57.66
47366;BME280;33105;47.964;7.982;2022-10-16T12:43:41;96842.22;;;21.17;57.66
47366;BME280;33105;47.964;7.982;2022-10-16T12:46:43;96832.59;;;21.15;56.10
47366;BME280;33105;47.964;7.982;2022-10-16T12:49:50;96834.38;;;21.11;59.12
47366;BME280;33105;47.964;7.982;2022-10-16T12:52:52;96826.38;;;21.09;56.58
47366;BME280;33105;47.964;7.982;2022-10-16T12:56:18;96828.53;;;20.95;57.72
47366;BME280;33105;47.964;7.982;2022-10-16T13:10:25;96812.03;;;20.73;58.90
47366;BME280;33105;47.964;7.982;2022-10-16T13:13:27;96822.47;;;20.67;59.18
47366;BME280;33105;47.964;7.982;2022-10-16T13:20:26;96821.16;;;20.73;55.68
47366;BME280;33105;47.964;7.982;2022-10-16T13:26:53;96826.53;;;20.87;61.33
47366;BME280;33105;47.964;7.982;2022-10-16T13:30:13;96824.75;;;20.91;59.20
47366;BME280;33105;47.964;7.982;2022-10-16T13:33:46;96818.72;;;20.97;53.45
47366;BME280;33105;47.964;7.982;2022-10-16T13:36:50;96823.59;;;21.09;59.18
47366;BME280;33105;47.964;7.982;2022-10-16T13:40:05;96822.94;;;21.03;62.09
47366;BME280;33105;47.964;7.982;2022-10-16T13:43:08;96821.97;;;21.08;55.16
47366;BME280;33105;47.964;7.982;2022-10-16T13:46:18;96823.59;;;21.09;59.36
47366;BME280;33105;47.964;7.982;2022-10-16T13:49:20;96820.66;;;21.05;58.74
47366;BME280;33105;47.964;7.982;2022-10-16T13:52:21;96830.16;;;20.96;59.34
47366;BME280;33105;47.964;7.982;2022-10-16T13:55:23;96823.44;;;20.88;61.79
47366;BME280;33105;47.964;7.982;2022-10-16T13:58:24;96824.25;;;20.80;61.60
47366;BME280;33105;47.964;7.982;2022-10-16T14:01:28;96826.72;;;20.73;63.12
47366;BME280;33105;47.964;7.982;2022-10-16T14:04:32;96834.88;;;20.52;63.60
47366;BME280;33105;47.964;7.982;2022-10-16T14:07:34;96828.34;;;20.65;62.63
47366;BME280;33105;47.964;7.982;2022-10-16T14:10:36;96833.88;;;20.65;63.58
47366;BME280;33105;47.964;7.982;2022-10-16T14:13:39;96831.13;;;20.74;62.90
47366;BME280;33105;47.964;7.982;2022-10-16T14:16:44;96832.44;;;20.68;61.95
47366;BME280;33105;47.964;7.982;2022-10-16T14:19:47;96834.06;;;20.69;61.12
47366;BME280;33105;47.964;7.982;2022-10-16T14:22:58;96831.25;;;20.43;59.42
47366;BME280;33105;47.964;7.982;2022-10-16T14:29:15;96832.06;;;20.61;59.53
47366;BME280;33105;47.964;7.982;2022-10-16T14:32:26;96829.16;;;20.75;63.45
47366;BME280;33105;47.964;7.982;2022-10-16T14:35:35;96831.44;;;20.81;63.69
47366;BME280;33105;47.964;7.982;2022-10-16T14:38:39;96835.19;;;20.85;62.70
47366;BME280;33105;47.964;7.982;2022-10-16T14:41:44;96835.03;;;20.90;62.57
47366;BME280;33105;47.964;7.982;2022-10-16T14:44:46;96834.72;;;20.83;62.84
47366;BME280;33105;47.964;7.982;2022-10-16T14:47:54;96829.44;;;20.56;62.74
47366;BME280;33105;47.964;7.982;2022-10-16T14:50:56;96832.88;;;20.44;63.90
47366;BME280;33105;47.964;7.982;2022-10-16T14:53:58;96829.44;;;20.56;62.16
47366;BME280;33105;47.964;7.982;2022-10-16T14:56:59;96829.44;;;20.56;62.56
47366;BME280;33105;47.964;7.982;2022-10-16T15:00:00;96830.28;;;20.48;63.33
47366;BME280;33105;47.964;7.982;2022-10-16T15:03:02;96828.81;;;20.59;65.83
47366;BME280;33105;47.964;7.982;2022-10-16T15:06:04;96832.97;;;20.22;64.20
47366;BME280;33105;47.964;7.982;2022-10-16T15:09:10;96851.69;;;20.16;63.45
47366;BME280;33105;47.964;7.982;2022-10-16T15:12:12;96845.69;;;20.31;63.16
47366;BME280;33105;47.964;7.982;2022-10-16T15:18:23;96850.78;;;19.90;63.27
47366;BME280;33105;47.964;7.982;2022-10-16T15:21:29;96852.47;;;19.99;63.83
47366;BME280;33105;47.964;7.982;2022-10-16T15:24:30;96856.06;;;20.09;65.01
47366;BME280;33105;47.964;7.982;2022-10-16T15:27:32;96864.38;;;20.09;65.77
47366;BME280;33105;47.964;7.982;2022-10-16T15:30:41;96858.56;;;19.79;66.25
47366;BME280;33105;47.964;7.982;2022-10-16T15:33:42;96860.28;;;19.66;66.86
47366;BME280;33105;47.964;7.982;2022-10-16T15:36:43;96862.88;;;19.18;65.60
47366;BME280;33105;47.964;7.982;2022-10-16T15:39:45;96858.03;;;19.46;66.64
47366;BME280;33105;47.964;7.982;2022-10-16T15:42:46;96859.72;;;19.33;68.89
47366;BME280;33105;47.964;7.982;2022-10-16T15:46:05;96859.22;;;19.09;70.59
47366;BME280;33105;47.964;7.982;2022-10-16T15:49:08;96872.22;;;18.86;70.09
47366;BME280;33105;47.964;7.982;2022-10-16T15:52:09;96867.38;;;18.69;70.76
47366;BME280;33105;47.964;7.982;2022-10-16T15:55:12;96874.66;;;18.65;72.96
47366;BME280;33105;47.964;7.982;2022-10-16T15:58:14;96878.03;;;18.49;72.28
47366;BME280;33105;47.964;7.982;2022-10-16T16:01:16;96879.88;;;18.40;73.25
47366;BME280;33105;47.964;7.982;2022-10-16T16:04:17;96885.84;;;18.06;72.28
47366;BME280;33105;47.964;7.982;2022-10-16T16:07:19;96885.53;;;18.07;71.71
47366;BME280;33105;47.964;7.982;2022-10-16T16:10:20;96885.84;;;18.06;72.63
47366;BME280;33105;47.964;7.982;2022-10-16T16:13:21;96891.88;;;17.94;74.88
47366;BME280;33105;47.964;7.982;2022-10-16T16:16:23;96887.56;;;17.74;72.99
47366;BME280;33105;47.964;7.982;2022-10-16T16:19:24;96900.47;;;17.60;72.22
47366;BME280;33105;47.964;7.982;2022-10-16T16:22:26;96892.66;;;17.67;73.80
47366;BME280;33105;47.964;7.982;2022-10-16T16:25:27;96894.13;;;17.59;73.04
47366;BME280;33105;47.964;7.982;2022-10-16T16:28:29;96892.16;;;17.46;73.67
47366;BME280;33105;47.964;7.982;2022-10-16T16:31:32;96900.84;;;17.40;75.36
47366;BME280;33105;47.964;7.982;2022-10-16T16:34:33;96907.28;;;17.16;75.96
47366;BME280;33105;47.964;7.982;2022-10-16T16:37:35;96900.50;;;17.09;76.88
47366;BME280;33105;47.964;7.982;2022-10-16T16:40:36;96905.38;;;16.98;77.25
47366;BME280;33105;47.964;7.982;2022-10-16T16:43:37;96914.09;;;16.86;77.44
47366;BME280;33105;47.964;7.982;2022-10-16T16:46:39;96917.91;;;16.90;76.04
47366;BME280;33105;47.964;7.982;2022-10-16T16:49:40;96919.56;;;16.73;77.00
47366;BME280;33105;47.964;7.982;2022-10-16T16:52:41;96927.06;;;16.67;77.19
47366;BME280;33105;47.964;7.982;2022-10-16T16:55:43;96931.50;;;16.63;76.71
47366;BME280;33105;47.964;7.982;2022-10-16T16:58:48;96930.94;;;16.66;76.68
47366;BME280;33105;47.964;7.982;2022-10-16T17:01:50;96937.03;;;16.63;76.74
47366;BME280;33105;47.964;7.982;2022-10-16T17:04:52;96937.75;;;16.50;77.43
47366;BME280;33105;47.964;7.982;2022-10-16T17:07:54;96943.38;;;16.40;77.74
47366;BME280;33105;47.964;7.982;2022-10-16T17:10:56;96951.56;;;16.02;77.30
47366;BME280;33105;47.964;7.982;2022-10-16T17:13:58;96959.84;;;16.26;77.61
47366;BME280;33105;47.964;7.982;2022-10-16T17:17:00;96970.28;;;16.29;77.49
47366;BME280;33105;47.964;7.982;2022-10-16T17:20:01;96968.69;;;16.23;76.28
47366;BME280;33105;47.964;7.982;2022-10-16T17:23:02;96973.84;;;16.29;76.51
47366;BME280;33105;47.964;7.982;2022-10-16T17:26:11;96971.78;;;16.16;77.16
47366;BME280;33105;47.964;7.982;2022-10-16T17:29:13;96978.72;;;15.85;77.92
47366;BME280;33105;47.964;7.982;2022-10-16T17:32:15;96977.28;;;15.92;77.12
47366;BME280;33105;47.964;7.982;2022-10-16T17:35:16;96978.47;;;16.10;76.67
47366;BME280;33105;47.964;7.982;2022-10-16T17:38:17;96982.28;;;15.85;77.22
47366;BME280;33105;47.964;7.982;2022-10-16T17:41:21;96988.09;;;15.84;78.67
47366;BME280;33105;47.964;7.982;2022-10-16T17:44:23;96992.47;;;15.85;78.32
47366;BME280;33105;47.964;7.982;2022-10-16T17:47:24;96994.00;;;15.72;78.29
47366;BME280;33105;47.964;7.982;2022-10-16T17:50:25;96999.00;;;15.65;78.84
47366;BME280;33105;47.964;7.982;2022-10-16T17:53:26;96999.00;;;15.65;79.06